sensor_id;sensor_type;location;lat;lon;timestamp;temperature;humidity
3408;DHT22;1717;50.240;8.406;2023-06-10T00:01:33;20.20;69.80
3408;DHT22;1717;50.240;8.406;2023-06-10T00:04:02;20.10;69.90
3408;DHT22;1717;50.240;8.406;2023-06-10T00:06:29;20.00;70.20
3408;DHT22;1717;50.240;8.406;2023-06-10T00:09:02;20.00;70.00
3408;DHT22;1717;50.240;8.406;2023-06-10T00:11:30;20.00;70.20
3408;DHT22;1717;50.240;8.406;2023-06-10T00:13:57;20.00;69.70
3408;DHT22;1717;50.240;8.406;2023-06-10T00:16:25;19.90;70.20
3408;DHT22;1717;50.240;8.406;2023-06-10T00:18:53;19.90;70.40
3408;DHT22;1717;50.240;8.406;2023-06-10T00:21:21;19.90;70.40
3408;DHT22;1717;50.240;8.406;2023-06-10T00:23:50;19.90;70.40
3408;DHT22;1717;50.240;8.406;2023-06-10T00:26:16;19.90;70.60
3408;DHT22;1717;50.240;8.406;2023-06-10T00:28:43;20.00;70.50
3408;DHT22;1717;50.240;8.406;2023-06-10T00:31:11;19.90;70.10
3408;DHT22;1717;50.240;8.406;2023-06-10T00:33:39;20.00;69.90
3408;DHT22;1717;50.240;8.406;2023-06-10T00:36:06;20.00;70.00
3408;DHT22;1717;50.240;8.406;2023-06-10T00:38:33;19.90;69.90
3408;DHT22;1717;50.240;8.406;2023-06-10T00:41:00;19.90;70.00
3408;DHT22;1717;50.240;8.406;2023-06-10T00:43:27;19.80;70.00
3408;DHT22;1717;50.240;8.406;2023-06-10T00:45:54;19.70;69.90
3408;DHT22;1717;50.240;8.406;2023-06-10T00:48:21;19.70;70.00
3408;DHT22;1717;50.240;8.406;2023-06-10T00:50:49;19.60;69.80
3408;DHT22;1717;50.240;8.406;2023-06-10T00:53:16;19.70;70.30
3408;DHT22;1717;50.240;8.406;2023-06-10T00:55:44;19.60;69.80
3408;DHT22;1717;50.240;8.406;2023-06-10T00:58:11;19.60;70.70
3408;DHT22;1717;50.240;8.406;2023-06-10T01:00:38;19.60;69.70
3408;DHT22;1717;50.240;8.406;2023-06-10T01:03:05;19.60;69.70
3408;DHT22;1717;50.240;8.406;2023-06-10T01:05:33;19.50;69.50
3408;DHT22;1717;50.240;8.406;2023-06-10T01:08:07;19.50;69.40
3408;DHT22;1717;50.240;8.406;2023-06-10T01:10:38;19.50;69.30
3408;DHT22;1717;50.240;8.406;2023-06-10T01:13:10;19.50;69.40
3408;DHT22;1717;50.240;8.406;2023-06-10T01:15:38;19.50;69.50
3408;DHT22;1717;50.240;8.406;2023-06-10T01:18:07;19.50;69.30
3408;DHT22;1717;50.240;8.406;2023-06-10T01:20:36;19.40;69.00
3408;DHT22;1717;50.240;8.406;2023-06-10T01:23:07;19.40;69.00
3408;DHT22;1717;50.240;8.406;2023-06-10T01:25:37;19.40;68.50
3408;DHT22;1717;50.240;8.406;2023-06-10T01:28:10;19.30;68.80
3408;DHT22;1717;50.240;8.406;2023-06-10T01:30:42;19.20;68.90
3408;DHT22;1717;50.240;8.406;2023-06-10T01:33:12;19.20;68.80
3408;DHT22;1717;50.240;8.406;2023-06-10T01:35:41;19.20;69.00
3408;DHT22;1717;50.240;8.406;2023-06-10T01:38:12;19.20;68.50
3408;DHT22;1717;50.240;8.406;2023-06-10T01:40:40;19.20;68.50
3408;DHT22;1717;50.240;8.406;2023-06-10T01:43:07;19.10;68.50
3408;DHT22;1717;50.240;8.406;2023-06-10T01:45:34;19.20;68.50
3408;DHT22;1717;50.240;8.406;2023-06-10T01:48:01;19.20;68.30
3408;DHT22;1717;50.240;8.406;2023-06-10T01:50:28;19.10;69.00
3408;DHT22;1717;50.240;8.406;2023-06-10T01:52:55;19.20;67.80
3408;DHT22;1717;50.240;8.406;2023-06-10T01:55:23;19.20;67.40
3408;DHT22;1717;50.240;8.406;2023-06-10T01:57:50;19.20;67.10
3408;DHT22;1717;50.240;8.406;2023-06-10T02:00:17;19.20;67.10
3408;DHT22;1717;50.240;8.406;2023-06-10T02:02:44;19.10;66.70
3408;DHT22;1717;50.240;8.406;2023-06-10T02:05:11;19.10;66.40
3408;DHT22;1717;50.240;8.406;2023-06-10T02:07:38;19.10;66.20
3408;DHT22;1717;50.240;8.406;2023-06-10T02:10:07;19.10;66.10
3408;DHT22;1717;50.240;8.406;2023-06-10T02:12:36;19.20;65.90
3408;DHT22;1717;50.240;8.406;2023-06-10T02:15:03;19.20;65.60
3408;DHT22;1717;50.240;8.406;2023-06-10T02:17:30;19.30;65.60
3408;DHT22;1717;50.240;8.406;2023-06-10T02:19:58;19.30;65.40
3408;DHT22;1717;50.240;8.406;2023-06-10T02:22:25;19.30;65.30
3408;DHT22;1717;50.240;8.406;2023-06-10T02:24:52;19.30;65.00
3408;DHT22;1717;50.240;8.406;2023-06-10T02:27:19;19.30;64.80
3408;DHT22;1717;50.240;8.406;2023-06-10T02:29:47;19.30;64.70
3408;DHT22;1717;50.240;8.406;2023-06-10T02:32:14;19.30;64.80
3408;DHT22;1717;50.240;8.406;2023-06-10T02:34:42;19.30;64.60
3408;DHT22;1717;50.240;8.406;2023-06-10T02:37:09;19.30;64.30
3408;DHT22;1717;50.240;8.406;2023-06-10T02:39:36;19.30;64.00
3408;DHT22;1717;50.240;8.406;2023-06-10T02:42:03;19.40;63.80
3408;DHT22;1717;50.240;8.406;2023-06-10T02:44:31;19.30;63.30
3408;DHT22;1717;50.240;8.406;2023-06-10T02:46:59;19.30;63.80
3408;DHT22;1717;50.240;8.406;2023-06-10T02:49:26;19.30;63.80
3408;DHT22;1717;50.240;8.406;2023-06-10T02:51:53;19.30;63.80
3408;DHT22;1717;50.240;8.406;2023-06-10T02:54:22;19.30;63.80
3408;DHT22;1717;50.240;8.406;2023-06-10T02:56:50;19.30;63.80
3408;DHT22;1717;50.240;8.406;2023-06-10T02:59:17;19.30;63.70
3408;DHT22;1717;50.240;8.406;2023-06-10T03:01:45;19.40;63.60
3408;DHT22;1717;50.240;8.406;2023-06-10T03:04:13;19.40;63.40
3408;DHT22;1717;50.240;8.406;2023-06-10T03:06:40;19.40;63.30
3408;DHT22;1717;50.240;8.406;2023-06-10T03:09:07;19.40;63.40
3408;DHT22;1717;50.240;8.406;2023-06-10T03:11:34;19.40;63.60
3408;DHT22;1717;50.240;8.406;2023-06-10T03:14:02;19.40;63.70
3408;DHT22;1717;50.240;8.406;2023-06-10T03:16:29;19.40;63.80
3408;DHT22;1717;50.240;8.406;2023-06-10T03:18:57;19.40;63.80
3408;DHT22;1717;50.240;8.406;2023-06-10T03:21:25;19.40;63.60
3408;DHT22;1717;50.240;8.406;2023-06-10T03:23:52;19.40;63.80
3408;DHT22;1717;50.240;8.406;2023-06-10T03:26:19;19.30;64.00
3408;DHT22;1717;50.240;8.406;2023-06-10T03:28:47;19.30;64.00
3408;DHT22;1717;50.240;8.406;2023-06-10T03:31:14;19.30;64.40
3408;DHT22;1717;50.240;8.406;2023-06-10T03:33:42;19.30;64.40
3408;DHT22;1717;50.240;8.406;2023-06-10T03:36:09;19.40;64.90
3408;DHT22;1717;50.240;8.406;2023-06-10T03:38:37;19.20;64.90
3408;DHT22;1717;50.240;8.406;2023-06-10T03:41:04;19.20;65.20
3408;DHT22;1717;50.240;8.406;2023-06-10T03:43:31;19.10;65.40
3408;DHT22;1717;50.240;8.406;2023-06-10T03:45:58;19.10;65.70
3408;DHT22;1717;50.240;8.406;2023-06-10T03:48:25;19.10;65.70
3408;DHT22;1717;50.240;8.406;2023-06-10T03:50:52;19.00;66.00
3408;DHT22;1717;50.240;8.406;2023-06-10T03:53:18;19.10;66.20
3408;DHT22;1717;50.240;8.406;2023-06-10T03:55:47;19.10;66.20
3408;DHT22;1717;50.240;8.406;2023-06-10T03:58:14;19.00;66.60
3408;DHT22;1717;50.240;8.406;2023-06-10T04:00:41;19.00;67.00
3408;DHT22;1717;50.240;8.406;2023-06-10T04:03:08;19.10;67.00
3408;DHT22;1717;50.240;8.406;2023-06-10T04:05:40;19.00;67.10
3408;DHT22;1717;50.240;8.406;2023-06-10T04:08:07;19.00;67.20
3408;DHT22;1717;50.240;8.406;2023-06-10T04:10:34;19.00;67.40
3408;DHT22;1717;50.240;8.406;2023-06-10T04:13:02;18.90;67.60
3408;DHT22;1717;50.240;8.406;2023-06-10T04:15:29;18.90;67.90
3408;DHT22;1717;50.240;8.406;2023-06-10T04:17:58;18.80;68.10
3408;DHT22;1717;50.240;8.406;2023-06-10T04:20:26;18.80;68.60
3408;DHT22;1717;50.240;8.406;2023-06-10T04:22:53;18.80;68.50
3408;DHT22;1717;50.240;8.406;2023-06-10T04:25:20;18.70;68.50
3408;DHT22;1717;50.240;8.406;2023-06-10T04:27:47;18.70;68.70
3408;DHT22;1717;50.240;8.406;2023-06-10T04:30:16;18.70;69.00
3408;DHT22;1717;50.240;8.406;2023-06-10T04:32:43;18.70;69.00
3408;DHT22;1717;50.240;8.406;2023-06-10T04:35:12;18.70;69.20
3408;DHT22;1717;50.240;8.406;2023-06-10T04:37:39;18.70;69.30
3408;DHT22;1717;50.240;8.406;2023-06-10T04:40:07;18.70;70.30
3408;DHT22;1717;50.240;8.406;2023-06-10T04:42:35;18.70;69.60
3408;DHT22;1717;50.240;8.406;2023-06-10T04:45:02;18.70;69.50
3408;DHT22;1717;50.240;8.406;2023-06-10T04:47:30;18.70;69.40
3408;DHT22;1717;50.240;8.406;2023-06-10T04:49:58;18.70;69.20
3408;DHT22;1717;50.240;8.406;2023-06-10T04:52:25;18.80;69.50
3408;DHT22;1717;50.240;8.406;2023-06-10T04:54:52;18.80;69.80
3408;DHT22;1717;50.240;8.406;2023-06-10T04:57:19;18.70;69.90
3408;DHT22;1717;50.240;8.406;2023-06-10T04:59:45;18.70;70.00
3408;DHT22;1717;50.240;8.406;2023-06-10T05:02:12;18.80;70.00
3408;DHT22;1717;50.240;8.406;2023-06-10T05:04:40;18.80;70.90
3408;DHT22;1717;50.240;8.406;2023-06-10T05:07:07;18.80;70.40
3408;DHT22;1717;50.240;8.406;2023-06-10T05:09:34;18.80;70.80
3408;DHT22;1717;50.240;8.406;2023-06-10T05:12:01;18.80;71.00
3408;DHT22;1717;50.240;8.406;2023-06-10T05:14:28;18.80;71.50
3408;DHT22;1717;50.240;8.406;2023-06-10T05:19:20;18.80;72.30
3408;DHT22;1717;50.240;8.406;2023-06-10T05:21:49;18.80;72.90
3408;DHT22;1717;50.240;8.406;2023-06-10T05:24:15;18.80;73.20
3408;DHT22;1717;50.240;8.406;2023-06-10T05:26:42;18.80;73.30
3408;DHT22;1717;50.240;8.406;2023-06-10T05:29:09;18.80;73.80
3408;DHT22;1717;50.240;8.406;2023-06-10T05:31:36;18.90;74.30
3408;DHT22;1717;50.240;8.406;2023-06-10T05:34:03;18.90;74.70
3408;DHT22;1717;50.240;8.406;2023-06-10T05:36:30;18.80;75.00
3408;DHT22;1717;50.240;8.406;2023-06-10T05:38:59;18.90;75.20
3408;DHT22;1717;50.240;8.406;2023-06-10T05:41:26;18.90;75.40
3408;DHT22;1717;50.240;8.406;2023-06-10T05:43:53;18.90;75.60
3408;DHT22;1717;50.240;8.406;2023-06-10T05:46:19;18.90;76.30
3408;DHT22;1717;50.240;8.406;2023-06-10T05:48:46;18.80;76.80
3408;DHT22;1717;50.240;8.406;2023-06-10T05:51:13;18.90;77.30
3408;DHT22;1717;50.240;8.406;2023-06-10T05:53:40;18.90;77.70
3408;DHT22;1717;50.240;8.406;2023-06-10T05:56:08;18.90;77.50
3408;DHT22;1717;50.240;8.406;2023-06-10T05:58:35;19.00;78.50
3408;DHT22;1717;50.240;8.406;2023-06-10T06:01:02;19.00;79.50
3408;DHT22;1717;50.240;8.406;2023-06-10T06:03:29;19.10;79.30
3408;DHT22;1717;50.240;8.406;2023-06-10T06:05:56;19.30;79.30
3408;DHT22;1717;50.240;8.406;2023-06-10T06:08:22;19.40;79.40
3408;DHT22;1717;50.240;8.406;2023-06-10T06:10:50;19.50;78.70
3408;DHT22;1717;50.240;8.406;2023-06-10T06:13:18;19.70;78.10
3408;DHT22;1717;50.240;8.406;2023-06-10T06:15:45;19.80;77.60
3408;DHT22;1717;50.240;8.406;2023-06-10T06:18:12;19.90;76.90
3408;DHT22;1717;50.240;8.406;2023-06-10T06:20:39;20.10;76.30
3408;DHT22;1717;50.240;8.406;2023-06-10T06:23:06;20.20;76.30
3408;DHT22;1717;50.240;8.406;2023-06-10T06:25:35;20.30;76.10
3408;DHT22;1717;50.240;8.406;2023-06-10T06:28:04;20.50;75.20
3408;DHT22;1717;50.240;8.406;2023-06-10T06:30:32;20.60;74.80
3408;DHT22;1717;50.240;8.406;2023-06-10T06:32:59;20.70;74.30
3408;DHT22;1717;50.240;8.406;2023-06-10T06:35:26;20.90;73.90
3408;DHT22;1717;50.240;8.406;2023-06-10T06:37:53;21.00;74.30
3408;DHT22;1717;50.240;8.406;2023-06-10T06:40:20;21.10;73.10
3408;DHT22;1717;50.240;8.406;2023-06-10T06:42:46;21.20;72.70
3408;DHT22;1717;50.240;8.406;2023-06-10T06:45:13;21.30;72.10
3408;DHT22;1717;50.240;8.406;2023-06-10T06:47:41;21.50;71.80
3408;DHT22;1717;50.240;8.406;2023-06-10T06:50:09;21.60;71.00
3408;DHT22;1717;50.240;8.406;2023-06-10T06:52:36;21.70;70.30
3408;DHT22;1717;50.240;8.406;2023-06-10T06:55:03;21.80;70.10
3408;DHT22;1717;50.240;8.406;2023-06-10T06:57:30;21.90;69.60
3408;DHT22;1717;50.240;8.406;2023-06-10T06:59:57;22.00;69.10
3408;DHT22;1717;50.240;8.406;2023-06-10T07:02:24;22.10;68.80
3408;DHT22;1717;50.240;8.406;2023-06-10T07:04:52;22.20;68.30
3408;DHT22;1717;50.240;8.406;2023-06-10T07:07:21;22.30;68.00
3408;DHT22;1717;50.240;8.406;2023-06-10T07:09:48;22.50;67.90
3408;DHT22;1717;50.240;8.406;2023-06-10T07:12:15;22.60;67.10
3408;DHT22;1717;50.240;8.406;2023-06-10T07:14:43;22.70;67.10
3408;DHT22;1717;50.240;8.406;2023-06-10T07:17:10;22.80;66.80
3408;DHT22;1717;50.240;8.406;2023-06-10T07:19:37;23.00;66.80
3408;DHT22;1717;50.240;8.406;2023-06-10T07:22:05;23.00;69.30
3408;DHT22;1717;50.240;8.406;2023-06-10T07:24:32;23.10;67.90
3408;DHT22;1717;50.240;8.406;2023-06-10T07:26:59;23.30;66.90
3408;DHT22;1717;50.240;8.406;2023-06-10T07:29:26;23.40;66.50
3408;DHT22;1717;50.240;8.406;2023-06-10T07:31:53;23.50;67.00
3408;DHT22;1717;50.240;8.406;2023-06-10T07:34:20;23.60;66.00
3408;DHT22;1717;50.240;8.406;2023-06-10T07:36:46;23.80;66.40
3408;DHT22;1717;50.240;8.406;2023-06-10T07:39:15;24.00;65.50
3408;DHT22;1717;50.240;8.406;2023-06-10T07:41:42;24.10;63.30
3408;DHT22;1717;50.240;8.406;2023-06-10T07:44:09;24.30;63.40
3408;DHT22;1717;50.240;8.406;2023-06-10T07:46:35;24.40;63.20
3408;DHT22;1717;50.240;8.406;2023-06-10T07:49:02;24.50;62.30
3408;DHT22;1717;50.240;8.406;2023-06-10T07:51:29;24.60;62.10
3408;DHT22;1717;50.240;8.406;2023-06-10T07:53:56;24.70;61.80
3408;DHT22;1717;50.240;8.406;2023-06-10T07:56:26;24.80;61.40
3408;DHT22;1717;50.240;8.406;2023-06-10T07:58:53;25.00;61.00
3408;DHT22;1717;50.240;8.406;2023-06-10T08:01:19;25.10;60.50
3408;DHT22;1717;50.240;8.406;2023-06-10T08:03:46;25.20;60.70
3408;DHT22;1717;50.240;8.406;2023-06-10T08:06:13;25.30;59.80
3408;DHT22;1717;50.240;8.406;2023-06-10T08:08:42;25.40;59.60
3408;DHT22;1717;50.240;8.406;2023-06-10T08:11:10;25.40;59.20
3408;DHT22;1717;50.240;8.406;2023-06-10T08:13:38;25.60;59.00
3408;DHT22;1717;50.240;8.406;2023-06-10T08:16:05;25.70;58.90
3408;DHT22;1717;50.240;8.406;2023-06-10T08:18:32;25.70;58.60
3408;DHT22;1717;50.240;8.406;2023-06-10T08:20:59;25.80;58.30
3408;DHT22;1717;50.240;8.406;2023-06-10T08:23:26;25.90;58.10
3408;DHT22;1717;50.240;8.406;2023-06-10T08:25:53;26.00;57.70
3408;DHT22;1717;50.240;8.406;2023-06-10T08:28:20;26.10;57.40
3408;DHT22;1717;50.240;8.406;2023-06-10T08:30:48;26.20;56.90
3408;DHT22;1717;50.240;8.406;2023-06-10T08:33:15;26.30;56.70
3408;DHT22;1717;50.240;8.406;2023-06-10T08:35:42;26.30;56.40
3408;DHT22;1717;50.240;8.406;2023-06-10T08:38:09;26.40;56.10
3408;DHT22;1717;50.240;8.406;2023-06-10T08:40:36;26.40;55.90
3408;DHT22;1717;50.240;8.406;2023-06-10T08:43:06;26.50;55.80
3408;DHT22;1717;50.240;8.406;2023-06-10T08:45:36;26.60;55.70
3408;DHT22;1717;50.240;8.406;2023-06-10T08:48:05;26.60;55.30
3408;DHT22;1717;50.240;8.406;2023-06-10T08:50:34;26.70;55.00
3408;DHT22;1717;50.240;8.406;2023-06-10T08:53:04;26.80;54.70
3408;DHT22;1717;50.240;8.406;2023-06-10T08:55:33;26.80;53.60
3408;DHT22;1717;50.240;8.406;2023-06-10T08:58:00;26.90;53.20
3408;DHT22;1717;50.240;8.406;2023-06-10T09:00:28;26.90;52.90
3408;DHT22;1717;50.240;8.406;2023-06-10T09:02:55;27.00;52.90
3408;DHT22;1717;50.240;8.406;2023-06-10T09:05:24;27.10;53.20
3408;DHT22;1717;50.240;8.406;2023-06-10T09:07:52;27.10;52.40
3408;DHT22;1717;50.240;8.406;2023-06-10T09:10:19;27.20;52.20
3408;DHT22;1717;50.240;8.406;2023-06-10T09:12:46;27.10;51.80
3408;DHT22;1717;50.240;8.406;2023-06-10T09:15:13;27.30;51.60
3408;DHT22;1717;50.240;8.406;2023-06-10T09:17:42;27.40;51.40
3408;DHT22;1717;50.240;8.406;2023-06-10T09:20:10;27.40;51.00
3408;DHT22;1717;50.240;8.406;2023-06-10T09:22:40;27.40;50.80
3408;DHT22;1717;50.240;8.406;2023-06-10T09:25:10;27.40;50.90
3408;DHT22;1717;50.240;8.406;2023-06-10T09:27:44;27.50;51.20
3408;DHT22;1717;50.240;8.406;2023-06-10T09:30:24;27.60;51.20
3408;DHT22;1717;50.240;8.406;2023-06-10T09:32:53;27.60;51.10
3408;DHT22;1717;50.240;8.406;2023-06-10T09:35:21;27.70;51.00
3408;DHT22;1717;50.240;8.406;2023-06-10T09:37:51;27.70;51.20
3408;DHT22;1717;50.240;8.406;2023-06-10T09:40:19;27.80;50.70
3408;DHT22;1717;50.240;8.406;2023-06-10T09:42:46;27.80;50.20
3408;DHT22;1717;50.240;8.406;2023-06-10T09:45:19;27.90;50.40
3408;DHT22;1717;50.240;8.406;2023-06-10T09:47:46;27.90;50.10
3408;DHT22;1717;50.240;8.406;2023-06-10T09:50:13;27.70;48.50
3408;DHT22;1717;50.240;8.406;2023-06-10T09:52:40;27.60;49.80
3408;DHT22;1717;50.240;8.406;2023-06-10T09:55:09;27.50;50.30
3408;DHT22;1717;50.240;8.406;2023-06-10T09:57:36;27.60;50.70
3408;DHT22;1717;50.240;8.406;2023-06-10T10:00:05;27.70;50.50
3408;DHT22;1717;50.240;8.406;2023-06-10T10:02:44;27.70;50.60
3408;DHT22;1717;50.240;8.406;2023-06-10T10:05:13;27.80;50.40
3408;DHT22;1717;50.240;8.406;2023-06-10T10:07:40;27.80;50.30
3408;DHT22;1717;50.240;8.406;2023-06-10T10:10:10;27.90;50.70
3408;DHT22;1717;50.240;8.406;2023-06-10T10:12:39;28.00;50.40
3408;DHT22;1717;50.240;8.406;2023-06-10T10:15:07;28.00;50.00
3408;DHT22;1717;50.240;8.406;2023-06-10T10:17:39;28.00;47.80
3408;DHT22;1717;50.240;8.406;2023-06-10T10:20:08;28.10;49.20
3408;DHT22;1717;50.240;8.406;2023-06-10T10:22:38;28.20;48.70
3408;DHT22;1717;50.240;8.406;2023-06-10T10:25:11;28.30;48.80
3408;DHT22;1717;50.240;8.406;2023-06-10T10:27:43;28.10;48.20
3408;DHT22;1717;50.240;8.406;2023-06-10T10:30:11;28.30;48.10
3408;DHT22;1717;50.240;8.406;2023-06-10T10:32:45;28.30;47.90
3408;DHT22;1717;50.240;8.406;2023-06-10T10:35:17;28.30;47.90
3408;DHT22;1717;50.240;8.406;2023-06-10T10:37:44;28.30;48.00
3408;DHT22;1717;50.240;8.406;2023-06-10T10:40:13;28.40;48.20
3408;DHT22;1717;50.240;8.406;2023-06-10T10:42:41;28.40;48.50
3408;DHT22;1717;50.240;8.406;2023-06-10T10:45:09;28.40;48.60
3408;DHT22;1717;50.240;8.406;2023-06-10T10:47:36;28.40;48.50
3408;DHT22;1717;50.240;8.406;2023-06-10T10:50:13;28.50;48.80
3408;DHT22;1717;50.240;8.406;2023-06-10T10:52:51;28.60;48.80
3408;DHT22;1717;50.240;8.406;2023-06-10T10:55:20;28.60;48.60
3408;DHT22;1717;50.240;8.406;2023-06-10T10:57:54;28.60;48.60
3408;DHT22;1717;50.240;8.406;2023-06-10T11:00:28;28.60;48.30
3408;DHT22;1717;50.240;8.406;2023-06-10T11:02:58;28.50;48.50
3408;DHT22;1717;50.240;8.406;2023-06-10T11:05:36;28.60;48.40
3408;DHT22;1717;50.240;8.406;2023-06-10T11:08:04;28.60;48.40
3408;DHT22;1717;50.240;8.406;2023-06-10T11:10:33;28.60;48.40
3408;DHT22;1717;50.240;8.406;2023-06-10T11:13:01;28.70;48.70
3408;DHT22;1717;50.240;8.406;2023-06-10T11:15:31;28.60;48.50
3408;DHT22;1717;50.240;8.406;2023-06-10T11:18:29;28.60;48.60
3408;DHT22;1717;50.240;8.406;2023-06-10T11:20:59;28.60;48.80
3408;DHT22;1717;50.240;8.406;2023-06-10T11:23:35;28.60;48.60
3408;DHT22;1717;50.240;8.406;2023-06-10T11:26:13;28.70;48.50
3408;DHT22;1717;50.240;8.406;2023-06-10T11:28:41;28.70;48.70
3408;DHT22;1717;50.240;8.406;2023-06-10T11:31:10;28.60;48.50
3408;DHT22;1717;50.240;8.406;2023-06-10T11:33:46;28.60;48.40
3408;DHT22;1717;50.240;8.406;2023-06-10T11:36:13;28.70;47.60
3408;DHT22;1717;50.240;8.406;2023-06-10T11:38:40;28.70;47.30
3408;DHT22;1717;50.240;8.406;2023-06-10T11:41:07;28.70;46.40
3408;DHT22;1717;50.240;8.406;2023-06-10T11:43:36;28.70;46.60
3408;DHT22;1717;50.240;8.406;2023-06-10T11:46:03;28.90;46.00
3408;DHT22;1717;50.240;8.406;2023-06-10T11:48:30;28.90;45.10
3408;DHT22;1717;50.240;8.406;2023-06-10T11:50:57;29.00;45.60
3408;DHT22;1717;50.240;8.406;2023-06-10T11:53:24;29.00;44.20
3408;DHT22;1717;50.240;8.406;2023-06-10T11:55:51;29.10;43.40
3408;DHT22;1717;50.240;8.406;2023-06-10T11:58:19;29.20;43.40
3408;DHT22;1717;50.240;8.406;2023-06-10T12:00:49;29.30;43.20
3408;DHT22;1717;50.240;8.406;2023-06-10T12:03:17;29.30;42.70
3408;DHT22;1717;50.240;8.406;2023-06-10T12:05:58;29.50;42.10
3408;DHT22;1717;50.240;8.406;2023-06-10T12:08:26;29.60;41.80
3408;DHT22;1717;50.240;8.406;2023-06-10T12:10:53;29.70;41.10
3408;DHT22;1717;50.240;8.406;2023-06-10T12:13:20;29.80;40.70
3408;DHT22;1717;50.240;8.406;2023-06-10T12:15:50;29.90;40.70
3408;DHT22;1717;50.240;8.406;2023-06-10T12:18:17;30.00;40.80
3408;DHT22;1717;50.240;8.406;2023-06-10T12:20:44;30.00;40.50
3408;DHT22;1717;50.240;8.406;2023-06-10T12:23:12;30.00;39.90
3408;DHT22;1717;50.240;8.406;2023-06-10T12:25:39;30.00;40.20
3408;DHT22;1717;50.240;8.406;2023-06-10T12:28:16;30.10;40.10
3408;DHT22;1717;50.240;8.406;2023-06-10T12:30:43;30.20;40.10
3408;DHT22;1717;50.240;8.406;2023-06-10T12:33:17;30.30;40.20
3408;DHT22;1717;50.240;8.406;2023-06-10T12:35:48;30.30;40.30
3408;DHT22;1717;50.240;8.406;2023-06-10T12:38:21;30.40;40.30
3408;DHT22;1717;50.240;8.406;2023-06-10T12:40:50;30.50;40.10
3408;DHT22;1717;50.240;8.406;2023-06-10T12:43:19;30.60;39.90
3408;DHT22;1717;50.240;8.406;2023-06-10T12:45:46;30.60;40.10
3408;DHT22;1717;50.240;8.406;2023-06-10T12:48:19;30.60;39.80
3408;DHT22;1717;50.240;8.406;2023-06-10T12:50:50;30.60;39.90
3408;DHT22;1717;50.240;8.406;2023-06-10T12:53:18;30.50;39.70
3408;DHT22;1717;50.240;8.406;2023-06-10T12:55:46;30.50;39.80
3408;DHT22;1717;50.240;8.406;2023-06-10T12:58:13;30.60;40.00
3408;DHT22;1717;50.240;8.406;2023-06-10T13:00:40;30.60;39.90
3408;DHT22;1717;50.240;8.406;2023-06-10T13:03:08;30.70;40.10
3408;DHT22;1717;50.240;8.406;2023-06-10T13:05:38;30.80;40.20
3408;DHT22;1717;50.240;8.406;2023-06-10T13:08:05;30.80;40.20
3408;DHT22;1717;50.240;8.406;2023-06-10T13:10:33;30.80;39.60
3408;DHT22;1717;50.240;8.406;2023-06-10T13:13:00;30.80;40.00
3408;DHT22;1717;50.240;8.406;2023-06-10T13:15:27;30.90;39.60
3408;DHT22;1717;50.240;8.406;2023-06-10T13:17:54;31.00;39.60
3408;DHT22;1717;50.240;8.406;2023-06-10T13:20:21;31.10;39.80
3408;DHT22;1717;50.240;8.406;2023-06-10T13:22:49;31.20;39.90
3408;DHT22;1717;50.240;8.406;2023-06-10T13:25:16;31.20;39.90
3408;DHT22;1717;50.240;8.406;2023-06-10T13:27:43;31.20;39.80
3408;DHT22;1717;50.240;8.406;2023-06-10T13:30:11;31.20;40.00
3408;DHT22;1717;50.240;8.406;2023-06-10T13:32:38;31.10;39.90
3408;DHT22;1717;50.240;8.406;2023-06-10T13:35:05;31.10;40.20
3408;DHT22;1717;50.240;8.406;2023-06-10T13:37:33;31.20;40.50
3408;DHT22;1717;50.240;8.406;2023-06-10T13:40:02;31.20;40.40
3408;DHT22;1717;50.240;8.406;2023-06-10T13:42:29;31.20;40.70
3408;DHT22;1717;50.240;8.406;2023-06-10T13:44:56;31.10;40.60
3408;DHT22;1717;50.240;8.406;2023-06-10T13:47:23;31.00;40.80
3408;DHT22;1717;50.240;8.406;2023-06-10T13:49:50;30.90;40.70
3408;DHT22;1717;50.240;8.406;2023-06-10T13:52:17;31.00;41.00
3408;DHT22;1717;50.240;8.406;2023-06-10T13:54:44;31.00;41.30
3408;DHT22;1717;50.240;8.406;2023-06-10T13:57:15;31.10;41.70
3408;DHT22;1717;50.240;8.406;2023-06-10T13:59:43;31.20;41.70
3408;DHT22;1717;50.240;8.406;2023-06-10T14:02:10;31.20;41.60
3408;DHT22;1717;50.240;8.406;2023-06-10T14:04:37;31.20;41.50
3408;DHT22;1717;50.240;8.406;2023-06-10T14:07:05;31.40;41.70
3408;DHT22;1717;50.240;8.406;2023-06-10T14:09:32;31.40;41.20
3408;DHT22;1717;50.240;8.406;2023-06-10T14:12:00;31.50;41.70
3408;DHT22;1717;50.240;8.406;2023-06-10T14:14:30;31.50;41.50
3408;DHT22;1717;50.240;8.406;2023-06-10T14:16:58;31.40;41.20
3408;DHT22;1717;50.240;8.406;2023-06-10T14:19:25;31.40;41.30
3408;DHT22;1717;50.240;8.406;2023-06-10T14:21:52;31.40;41.40
3408;DHT22;1717;50.240;8.406;2023-06-10T14:24:21;31.30;41.60
3408;DHT22;1717;50.240;8.406;2023-06-10T14:26:47;31.20;41.70
3408;DHT22;1717;50.240;8.406;2023-06-10T14:29:14;31.10;41.90
3408;DHT22;1717;50.240;8.406;2023-06-10T14:31:44;31.00;42.10
3408;DHT22;1717;50.240;8.406;2023-06-10T14:34:10;31.00;42.50
3408;DHT22;1717;50.240;8.406;2023-06-10T14:36:37;31.00;42.50
3408;DHT22;1717;50.240;8.406;2023-06-10T14:39:04;31.10;42.60
3408;DHT22;1717;50.240;8.406;2023-06-10T14:41:31;31.10;42.60
3408;DHT22;1717;50.240;8.406;2023-06-10T14:43:58;31.20;42.70
3408;DHT22;1717;50.240;8.406;2023-06-10T14:46:25;31.30;42.40
3408;DHT22;1717;50.240;8.406;2023-06-10T14:48:53;31.40;42.60
3408;DHT22;1717;50.240;8.406;2023-06-10T14:51:20;31.50;42.30
3408;DHT22;1717;50.240;8.406;2023-06-10T14:53:46;31.50;41.90
3408;DHT22;1717;50.240;8.406;2023-06-10T14:56:13;31.50;42.10
3408;DHT22;1717;50.240;8.406;2023-06-10T14:58:40;31.40;42.00
3408;DHT22;1717;50.240;8.406;2023-06-10T15:01:07;31.40;42.20
3408;DHT22;1717;50.240;8.406;2023-06-10T15:03:34;31.30;42.10
3408;DHT22;1717;50.240;8.406;2023-06-10T15:06:02;31.30;42.00
3408;DHT22;1717;50.240;8.406;2023-06-10T15:08:29;31.30;41.90
3408;DHT22;1717;50.240;8.406;2023-06-10T15:10:56;31.30;41.30
3408;DHT22;1717;50.240;8.406;2023-06-10T15:13:23;31.40;41.60
3408;DHT22;1717;50.240;8.406;2023-06-10T15:15:50;31.40;41.50
3408;DHT22;1717;50.240;8.406;2023-06-10T15:18:17;31.50;41.40
3408;DHT22;1717;50.240;8.406;2023-06-10T15:20:44;31.60;41.60
3408;DHT22;1717;50.240;8.406;2023-06-10T15:23:12;31.60;41.40
3408;DHT22;1717;50.240;8.406;2023-06-10T15:25:39;31.70;41.60
3408;DHT22;1717;50.240;8.406;2023-06-10T15:28:07;31.80;41.60
3408;DHT22;1717;50.240;8.406;2023-06-10T15:30:34;31.90;41.40
3408;DHT22;1717;50.240;8.406;2023-06-10T15:33:02;31.90;41.00
3408;DHT22;1717;50.240;8.406;2023-06-10T15:35:31;32.00;41.40
3408;DHT22;1717;50.240;8.406;2023-06-10T15:37:58;32.10;41.20
3408;DHT22;1717;50.240;8.406;2023-06-10T15:40:26;32.20;40.80
3408;DHT22;1717;50.240;8.406;2023-06-10T15:42:53;32.20;40.90
3408;DHT22;1717;50.240;8.406;2023-06-10T15:45:20;32.30;40.90
3408;DHT22;1717;50.240;8.406;2023-06-10T15:47:47;32.40;40.70
3408;DHT22;1717;50.240;8.406;2023-06-10T15:50:14;32.50;40.50
3408;DHT22;1717;50.240;8.406;2023-06-10T15:52:41;32.50;39.20
3408;DHT22;1717;50.240;8.406;2023-06-10T15:55:08;32.50;40.70
3408;DHT22;1717;50.240;8.406;2023-06-10T15:57:36;32.50;39.60
3408;DHT22;1717;50.240;8.406;2023-06-10T16:00:04;32.50;39.80
3408;DHT22;1717;50.240;8.406;2023-06-10T16:02:31;32.50;40.00
3408;DHT22;1717;50.240;8.406;2023-06-10T16:04:58;32.50;39.90
3408;DHT22;1717;50.240;8.406;2023-06-10T16:07:25;32.40;39.70
3408;DHT22;1717;50.240;8.406;2023-06-10T16:09:52;32.40;39.80